createdAt,value
2019-03-23T00:01:42.547Z,76.70
2019-03-23T00:04:09.849Z,75.30
2019-03-23T00:06:37.012Z,74.10
2019-03-23T00:09:04.466Z,75.70
2019-03-23T00:11:31.796Z,74.80
2019-03-23T00:13:58.838Z,76.20
2019-03-23T00:16:25.895Z,75.90
2019-03-23T00:18:52.928Z,76.50
2019-03-23T00:21:19.966Z,76.10
2019-03-23T00:23:57.165Z,76.30
2019-03-23T00:26:24.195Z,76.50
2019-03-23T00:28:51.277Z,77.50
2019-03-23T00:31:19.392Z,77.40
2019-03-23T00:33:46.614Z,77.00
2019-03-23T00:36:13.677Z,79.10
2019-03-23T00:38:40.896Z,80.00
2019-03-23T00:41:07.869Z,78.80
2019-03-23T00:43:34.941Z,79.40
2019-03-23T00:46:01.945Z,80.70
2019-03-23T00:48:29.091Z,81.00
2019-03-23T00:50:56.148Z,81.90
2019-03-23T00:53:23.308Z,80.50
2019-03-23T00:55:50.238Z,81.70
2019-03-23T00:58:17.283Z,81.40
2019-03-23T01:00:44.292Z,81.50
2019-03-23T01:03:11.326Z,89.30
2019-03-23T01:05:38.365Z,81.70
2019-03-23T01:08:05.530Z,82.60
2019-03-23T01:10:32.558Z,82.70
2019-03-23T01:12:59.707Z,82.60
2019-03-23T01:15:26.721Z,82.60
2019-03-23T01:17:53.749Z,83.50
2019-03-23T01:20:20.795Z,83.30
2019-03-23T01:22:50.154Z,84.00
2019-03-23T01:25:17.189Z,83.60
2019-03-23T01:27:44.263Z,84.20
2019-03-23T01:30:19.570Z,84.80
2019-03-23T01:32:46.818Z,84.30
2019-03-23T01:35:14.021Z,84.10
2019-03-23T01:37:41.229Z,84.30
2019-03-23T01:40:08.902Z,84.70
2019-03-23T01:42:37.114Z,85.00
2019-03-23T01:45:07.472Z,85.50
2019-03-23T01:47:34.601Z,85.30
2019-03-23T01:50:05.308Z,85.80
2019-03-23T01:52:32.517Z,85.60
2019-03-23T01:55:01.455Z,85.50
2019-03-23T01:57:29.563Z,90.70
2019-03-23T01:59:56.707Z,85.30
2019-03-23T02:02:23.963Z,84.60
2019-03-23T02:04:51.252Z,84.50
2019-03-23T02:07:18.396Z,85.70
2019-03-23T02:09:45.802Z,84.30
2019-03-23T02:12:12.853Z,83.90
2019-03-23T02:14:40.369Z,84.30
2019-03-23T02:17:08.571Z,83.90
2019-03-23T02:19:36.018Z,85.20
2019-03-23T02:22:03.041Z,83.40
2019-03-23T02:24:30.208Z,83.10
2019-03-23T02:26:57.286Z,83.20
2019-03-23T02:29:24.472Z,82.00
2019-03-23T02:31:51.681Z,83.80
2019-03-23T02:34:18.839Z,82.50
2019-03-23T02:36:45.873Z,83.00
2019-03-23T02:39:13.023Z,83.40
2019-03-23T02:41:39.992Z,83.40
2019-03-23T02:44:07.138Z,84.00
2019-03-23T02:46:34.243Z,83.60
2019-03-23T02:49:01.251Z,82.80
2019-03-23T02:51:28.318Z,83.90
2019-03-23T02:53:55.357Z,84.20
2019-03-23T02:56:22.444Z,84.20
2019-03-23T02:58:49.626Z,83.90
2019-03-23T03:01:16.682Z,84.60
2019-03-23T03:03:43.818Z,83.80
2019-03-23T03:06:10.885Z,84.80
2019-03-23T03:08:37.873Z,83.60
2019-03-23T03:11:04.888Z,85.20
2019-03-23T03:13:31.900Z,84.60
2019-03-23T03:15:59.113Z,85.10
2019-03-23T03:18:26.117Z,83.40
2019-03-23T03:20:53.181Z,84.90
2019-03-23T03:23:20.163Z,83.40
2019-03-23T03:25:52.646Z,84.80
2019-03-23T03:28:19.649Z,83.10
2019-03-23T03:30:46.825Z,82.70
2019-03-23T03:33:13.825Z,82.50
2019-03-23T03:35:41.031Z,82.90
2019-03-23T03:38:08.048Z,83.00
2019-03-23T03:40:35.484Z,82.50
2019-03-23T03:43:02.485Z,83.10
2019-03-23T03:45:31.384Z,83.10
2019-03-23T03:47:58.441Z,83.60
2019-03-23T03:50:25.576Z,81.60
2019-03-23T03:52:52.713Z,83.00
2019-03-23T03:55:20.187Z,82.80
2019-03-23T03:57:48.057Z,81.80
2019-03-23T04:00:15.194Z,82.20
2019-03-23T04:02:42.396Z,82.40
2019-03-23T04:05:09.403Z,82.20
2019-03-23T04:07:36.488Z,82.40
2019-03-23T04:10:07.908Z,82.80
2019-03-23T04:12:35.052Z,83.10
2019-03-23T04:15:03.302Z,83.80
2019-03-23T04:17:30.405Z,83.30
2019-03-23T04:19:57.730Z,82.70
2019-03-23T04:22:25.401Z,81.80
2019-03-23T04:24:52.379Z,82.00
2019-03-23T04:27:19.453Z,81.50
2019-03-23T04:29:46.461Z,83.40
2019-03-23T04:32:16.069Z,82.10
2019-03-23T04:34:43.069Z,83.10
2019-03-23T04:37:10.135Z,81.20
2019-03-23T04:39:38.153Z,81.80
2019-03-23T04:42:07.517Z,83.30
2019-03-23T04:44:34.486Z,83.10
2019-03-23T04:47:01.536Z,82.00
2019-03-23T04:49:28.564Z,83.00
2019-03-23T04:51:55.625Z,82.70
2019-03-23T04:54:22.656Z,82.00
2019-03-23T04:56:49.798Z,83.00
2019-03-23T04:59:16.849Z,81.70
2019-03-23T05:01:43.945Z,81.90
2019-03-23T05:04:10.963Z,82.50
2019-03-23T05:06:38.005Z,82.40
2019-03-23T05:09:07.118Z,82.90
2019-03-23T05:11:34.267Z,83.50
2019-03-23T05:14:02.381Z,82.50
2019-03-23T05:16:29.500Z,83.90
2019-03-23T05:18:56.642Z,82.50
2019-03-23T05:21:23.855Z,82.40
2019-03-23T05:23:50.948Z,83.00
2019-03-23T05:26:33.830Z,82.70
2019-03-23T05:29:00.972Z,83.90
2019-03-23T05:31:28.093Z,82.70
2019-03-23T05:33:55.145Z,82.70
2019-03-23T05:36:22.290Z,83.70
2019-03-23T05:38:49.524Z,84.60
2019-03-23T05:41:16.692Z,84.90
2019-03-23T05:43:43.834Z,83.60
2019-03-23T05:46:11.029Z,83.70
2019-03-23T05:48:39.061Z,83.30
2019-03-23T05:51:06.298Z,83.60
2019-03-23T05:53:33.809Z,82.80
2019-03-23T05:56:00.870Z,83.30
2019-03-23T05:58:28.083Z,82.20
2019-03-23T06:00:55.290Z,83.40
2019-03-23T06:03:22.327Z,83.30
2019-03-23T06:05:49.354Z,82.20
2019-03-23T06:08:16.517Z,83.10
2019-03-23T06:10:43.525Z,84.50
2019-03-23T06:13:10.623Z,85.10
2019-03-23T06:15:37.656Z,83.40
2019-03-23T06:18:04.791Z,83.90
2019-03-23T06:20:31.835Z,84.80
2019-03-23T06:22:58.881Z,84.30
2019-03-23T06:25:25.875Z,84.50
2019-03-23T06:27:52.941Z,84.80
2019-03-23T06:30:20.001Z,85.10
2019-03-23T06:32:47.034Z,84.30
2019-03-23T06:35:14.078Z,83.80
2019-03-23T06:37:41.071Z,81.70
2019-03-23T06:40:09.512Z,80.70
2019-03-23T06:42:36.476Z,82.40
2019-03-23T06:45:06.382Z,80.50
2019-03-23T06:47:33.435Z,80.70
2019-03-23T06:50:02.265Z,79.90
2019-03-23T06:52:29.220Z,80.30
2019-03-23T06:54:56.294Z,80.60
2019-03-23T06:57:23.277Z,78.90
2019-03-23T06:59:50.235Z,77.00
2019-03-23T07:02:17.254Z,75.50
2019-03-23T07:04:44.297Z,78.30
2019-03-23T07:07:11.262Z,77.20
2019-03-23T07:09:38.669Z,80.50
2019-03-23T07:12:05.651Z,76.90
2019-03-23T07:14:32.737Z,78.30
2019-03-23T07:17:00.015Z,77.00
2019-03-23T07:19:27.181Z,77.40
2019-03-23T07:21:54.181Z,74.40
2019-03-23T07:24:21.196Z,75.60
2019-03-23T07:26:48.171Z,73.60
2019-03-23T07:29:15.203Z,71.30
2019-03-23T07:31:42.265Z,75.20
2019-03-23T07:34:09.294Z,72.50
2019-03-23T07:36:36.354Z,75.40
2019-03-23T07:39:05.581Z,74.60
2019-03-23T07:41:32.649Z,75.20
2019-03-23T07:44:01.594Z,75.90
2019-03-23T07:46:28.653Z,73.80
2019-03-23T07:48:55.714Z,75.70
2019-03-23T07:51:22.829Z,68.10
2019-03-23T07:53:49.897Z,70.90
2019-03-23T07:56:17.289Z,67.70
2019-03-23T07:58:45.201Z,67.90
2019-03-23T08:01:12.850Z,65.40
2019-03-23T08:03:42.412Z,68.00
2019-03-23T08:06:09.572Z,66.10
2019-03-23T08:08:36.724Z,64.00
2019-03-23T08:11:04.782Z,66.80
2019-03-23T08:13:31.925Z,67.00
2019-03-23T08:15:58.955Z,64.30
2019-03-23T08:18:25.990Z,63.00
2019-03-23T08:20:53.029Z,64.70
2019-03-23T08:23:20.060Z,67.30
2019-03-23T08:25:47.297Z,65.80
2019-03-23T08:28:14.261Z,65.10
2019-03-23T08:30:41.369Z,63.30
2019-03-23T08:33:08.408Z,59.30
2019-03-23T08:35:35.539Z,66.00
2019-03-23T08:38:02.546Z,59.80
2019-03-23T08:40:29.802Z,63.70
2019-03-23T08:42:56.946Z,58.30
2019-03-23T08:45:23.989Z,58.70
2019-03-23T08:47:51.008Z,57.30
2019-03-23T08:50:18.153Z,57.40
2019-03-23T08:52:45.173Z,61.00
2019-03-23T08:55:12.323Z,58.40
2019-03-23T08:57:41.315Z,58.40
2019-03-23T09:00:08.335Z,57.60
2019-03-23T09:02:35.469Z,55.50
2019-03-23T09:05:04.029Z,56.30
2019-03-23T09:07:31.040Z,55.80
2019-03-23T09:09:59.405Z,61.50
2019-03-23T09:12:26.653Z,58.60
2019-03-23T09:14:53.758Z,58.10
2019-03-23T09:17:20.787Z,56.90
2019-03-23T09:19:47.948Z,60.10
2019-03-23T09:22:14.981Z,56.80
2019-03-23T09:24:42.039Z,59.20
2019-03-23T09:27:09.198Z,56.80
2019-03-23T09:29:36.249Z,56.30
2019-03-23T09:32:04.374Z,55.80
2019-03-23T09:34:31.419Z,54.10
2019-03-23T09:36:58.553Z,56.30
2019-03-23T09:39:25.643Z,54.80
2019-03-23T09:41:52.808Z,54.70
2019-03-23T09:44:19.890Z,52.90
2019-03-23T09:46:46.962Z,54.60
2019-03-23T09:49:14.005Z,52.70
2019-03-23T09:51:40.984Z,55.20
2019-03-23T09:54:08.007Z,53.60
2019-03-23T09:56:36.164Z,54.40
2019-03-23T09:59:03.370Z,53.10
2019-03-23T10:01:33.881Z,51.00
2019-03-23T10:04:01.150Z,52.70
2019-03-23T10:06:28.371Z,54.60
2019-03-23T10:08:55.477Z,52.80
2019-03-23T10:11:36.909Z,53.00
2019-03-23T10:14:03.947Z,52.20
2019-03-23T10:16:31.905Z,55.00
2019-03-23T10:19:03.598Z,53.00
2019-03-23T10:21:30.621Z,52.50
2019-03-23T10:23:57.712Z,52.40
2019-03-23T10:26:24.764Z,52.50
2019-03-23T10:28:51.842Z,53.20
2019-03-23T10:31:18.925Z,52.00
2019-03-23T10:33:45.966Z,51.70
2019-03-23T10:36:13.181Z,51.30
2019-03-23T10:38:40.605Z,51.90
2019-03-23T10:41:09.384Z,52.70
2019-03-23T10:43:36.436Z,53.50
2019-03-23T10:46:03.628Z,53.00
2019-03-23T10:48:36.938Z,54.80
2019-03-23T10:51:04.517Z,53.50
2019-03-23T10:53:31.520Z,55.10
2019-03-23T10:55:58.599Z,53.40
2019-03-23T10:58:25.831Z,52.50
2019-03-23T11:00:52.911Z,52.90
2019-03-23T11:03:19.930Z,52.50
2019-03-23T11:05:47.865Z,52.90
2019-03-23T11:08:19.401Z,53.80
2019-03-23T11:10:47.338Z,53.30
2019-03-23T11:13:14.339Z,53.10
2019-03-23T11:15:41.412Z,53.70
2019-03-23T11:18:08.369Z,54.50
2019-03-23T11:20:35.390Z,54.60
2019-03-23T11:23:02.399Z,54.40
2019-03-23T11:25:31.012Z,55.00
2019-03-23T11:27:59.061Z,53.20
2019-03-23T11:30:26.059Z,56.10
2019-03-23T11:32:53.032Z,55.20
2019-03-23T11:35:20.143Z,56.80
2019-03-23T11:37:47.382Z,56.10
2019-03-23T11:40:14.621Z,56.70
2019-03-23T11:42:49.916Z,57.30
2019-03-23T11:45:10.653Z,56.20
2019-03-23T11:47:37.669Z,57.10
2019-03-23T11:50:05.925Z,56.00
2019-03-23T11:52:33.102Z,54.40
2019-03-23T11:55:00.195Z,54.10
2019-03-23T11:57:27.270Z,52.40
2019-03-23T11:59:54.275Z,52.70
2019-03-23T12:02:21.438Z,51.70
2019-03-23T12:04:48.480Z,50.30
2019-03-23T12:07:16.966Z,49.70
2019-03-23T12:09:44.070Z,51.80
2019-03-23T12:12:11.556Z,51.10
2019-03-23T12:14:39.047Z,49.90
2019-03-23T12:17:06.145Z,51.50
2019-03-23T12:19:33.256Z,52.10
2019-03-23T12:22:00.259Z,50.30
2019-03-23T12:24:27.256Z,50.80
2019-03-23T12:26:54.268Z,49.30
2019-03-23T12:29:21.302Z,50.30
2019-03-23T12:31:48.381Z,50.40
2019-03-23T12:34:15.569Z,50.30
2019-03-23T12:36:42.608Z,49.70
2019-03-23T12:39:09.689Z,51.10
2019-03-23T12:41:36.717Z,50.40
2019-03-23T12:44:03.840Z,51.10
2019-03-23T12:46:30.834Z,52.30
2019-03-23T12:48:57.850Z,52.10
2019-03-23T12:51:24.842Z,50.20
2019-03-23T12:53:51.915Z,50.60
2019-03-23T12:56:18.911Z,51.60
2019-03-23T12:58:45.996Z,50.80
2019-03-23T13:01:15.397Z,50.90
2019-03-23T13:03:43.045Z,50.80
2019-03-23T13:06:10.820Z,49.20
2019-03-23T13:08:37.953Z,51.00
2019-03-23T13:11:05.049Z,50.30
2019-03-23T13:13:32.254Z,50.50
2019-03-23T13:15:59.217Z,51.20
2019-03-23T13:18:27.477Z,49.50
2019-03-23T13:20:54.633Z,48.50
2019-03-23T13:23:21.729Z,50.40
2019-03-23T13:25:49.549Z,48.00
2019-03-23T13:28:16.678Z,47.70
2019-03-23T13:30:43.716Z,48.20
2019-03-23T13:33:10.812Z,47.70
2019-03-23T13:35:37.873Z,50.20
2019-03-23T13:38:05.929Z,49.70
2019-03-23T13:40:32.920Z,49.80
2019-03-23T13:42:59.950Z,48.80
2019-03-23T13:45:26.948Z,50.30
2019-03-23T13:47:54.981Z,50.90
2019-03-23T13:50:26.930Z,51.30
2019-03-23T13:52:54.002Z,50.90
2019-03-23T13:55:26.843Z,51.80
2019-03-23T13:57:55.280Z,49.40
2019-03-23T14:00:22.287Z,50.40
2019-03-23T14:02:50.250Z,50.20
2019-03-23T14:05:17.297Z,52.40
2019-03-23T14:07:44.344Z,50.70
2019-03-23T14:10:11.577Z,52.60
2019-03-23T14:12:38.699Z,51.00
2019-03-23T14:15:06.094Z,52.30
2019-03-23T14:17:33.213Z,52.00
2019-03-23T14:20:00.324Z,51.70
2019-03-23T14:22:27.389Z,50.70
2019-03-23T14:24:54.413Z,50.60
2019-03-23T14:27:21.695Z,51.80
2019-03-23T14:29:48.734Z,50.70
2019-03-23T14:32:15.850Z,52.90
2019-03-23T14:34:43.879Z,51.10
2019-03-23T14:37:10.941Z,53.00
2019-03-23T14:39:37.961Z,53.00
2019-03-23T14:42:05.328Z,53.80
2019-03-23T14:44:32.517Z,55.00
2019-03-23T14:46:59.581Z,56.40
2019-03-23T14:49:26.615Z,54.40
2019-03-23T14:51:53.687Z,55.10
2019-03-23T14:54:20.762Z,54.30
2019-03-23T14:56:47.897Z,56.40
2019-03-23T14:59:15.157Z,57.40
2019-03-23T15:01:43.584Z,56.10
2019-03-23T15:04:10.629Z,55.60
2019-03-23T15:06:37.705Z,54.90
2019-03-23T15:09:05.652Z,54.60
2019-03-23T15:11:32.745Z,56.40
2019-03-23T15:13:59.889Z,55.80
2019-03-23T15:16:26.993Z,55.50
2019-03-23T15:18:54.041Z,52.00
2019-03-23T15:21:21.077Z,52.60
2019-03-23T15:23:48.050Z,51.80
2019-03-23T15:26:15.133Z,52.70
2019-03-23T15:28:42.581Z,52.20
2019-03-23T15:31:09.749Z,53.60
2019-03-23T15:33:36.791Z,53.10
2019-03-23T15:36:03.853Z,51.70
2019-03-23T15:38:30.857Z,52.50
2019-03-23T15:40:58.530Z,53.80
2019-03-23T15:43:25.579Z,54.30
2019-03-23T15:45:52.609Z,54.90
2019-03-23T15:48:19.822Z,52.80
2019-03-23T15:50:47.150Z,54.50
2019-03-23T15:53:14.175Z,55.50
2019-03-23T15:55:41.274Z,56.50
2019-03-23T15:58:08.430Z,53.50
2019-03-23T16:00:35.708Z,53.30
2019-03-23T16:03:03.281Z,54.40
2019-03-23T16:05:30.562Z,53.80
2019-03-23T16:07:57.640Z,53.90
2019-03-23T16:10:24.731Z,54.40
2019-03-23T16:12:51.842Z,54.50
2019-03-23T16:15:18.966Z,55.00
2019-03-23T16:17:46.238Z,53.00
2019-03-23T16:20:16.149Z,54.00
2019-03-23T16:22:43.174Z,55.00
2019-03-23T16:25:12.596Z,55.40
2019-03-23T16:27:39.639Z,55.20
2019-03-23T16:30:11.375Z,55.20
2019-03-23T16:32:38.594Z,56.40
2019-03-23T16:35:06.414Z,56.40
2019-03-23T16:37:33.512Z,55.20
2019-03-23T16:40:00.556Z,54.70
2019-03-23T16:42:27.545Z,54.90
2019-03-23T16:44:54.558Z,55.90
2019-03-23T16:47:21.595Z,54.10
2019-03-23T16:49:48.653Z,54.40
2019-03-23T16:52:15.798Z,55.70
2019-03-23T16:54:43.014Z,54.60
2019-03-23T16:57:10.148Z,55.40
2019-03-23T16:59:37.237Z,55.10
2019-03-23T17:02:04.319Z,56.40
2019-03-23T17:04:33.781Z,56.20
2019-03-23T17:07:00.837Z,59.40
2019-03-23T17:09:27.925Z,57.90
2019-03-23T17:11:54.985Z,57.50
2019-03-23T17:14:22.033Z,57.30
2019-03-23T17:16:49.057Z,58.80
2019-03-23T17:19:16.161Z,59.70
2019-03-23T17:21:43.174Z,58.20
2019-03-23T17:24:10.342Z,59.20
2019-03-23T17:26:37.417Z,58.90
2019-03-23T17:29:04.469Z,59.40
2019-03-23T17:31:31.519Z,59.40
2019-03-23T17:33:58.485Z,59.60
2019-03-23T17:36:25.500Z,60.10
2019-03-23T17:38:54.203Z,62.30
2019-03-23T17:41:21.247Z,61.80
2019-03-23T17:43:49.380Z,61.60
2019-03-23T17:46:16.494Z,60.80
2019-03-23T17:48:43.557Z,61.10
2019-03-23T17:51:11.446Z,60.20
2019-03-23T17:53:38.715Z,60.80
2019-03-23T17:56:06.889Z,60.30
2019-03-23T17:58:33.938Z,60.00
2019-03-23T18:01:00.990Z,61.20
2019-03-23T18:03:27.957Z,60.90
2019-03-23T18:05:55.360Z,63.80
2019-03-23T18:08:22.405Z,61.70
2019-03-23T18:10:49.494Z,61.80
2019-03-23T18:13:17.017Z,62.10
2019-03-23T18:15:44.301Z,62.80
2019-03-23T18:18:11.349Z,63.40
2019-03-23T18:20:38.439Z,62.90
2019-03-23T18:23:05.518Z,64.10
2019-03-23T18:25:32.536Z,64.80
2019-03-23T18:28:01.089Z,64.10
2019-03-23T18:30:37.032Z,64.90
2019-03-23T18:33:05.047Z,64.60
2019-03-23T18:35:32.378Z,63.90
2019-03-23T18:38:02.428Z,64.60
2019-03-23T18:40:32.626Z,65.00
2019-03-23T18:42:59.717Z,65.60
2019-03-23T18:45:27.092Z,66.80
2019-03-23T18:47:54.242Z,67.00
2019-03-23T18:50:21.249Z,67.30
2019-03-23T18:52:48.438Z,67.70
2019-03-23T18:55:15.485Z,68.00
2019-03-23T18:57:42.947Z,68.50
2019-03-23T19:00:10.969Z,69.10
2019-03-23T19:02:38.131Z,69.10
2019-03-23T19:05:05.281Z,68.80
2019-03-23T19:07:32.470Z,70.20
2019-03-23T19:09:59.666Z,67.80
2019-03-23T19:12:27.350Z,68.80
2019-03-23T19:14:54.902Z,68.60
2019-03-23T19:17:22.052Z,69.70
2019-03-23T19:19:49.190Z,68.00
2019-03-23T19:22:16.493Z,70.40
2019-03-23T19:24:45.917Z,69.50
2019-03-23T19:27:13.043Z,70.20
2019-03-23T19:29:41.197Z,70.10
2019-03-23T19:32:08.330Z,70.40
2019-03-23T19:34:35.305Z,71.10
2019-03-23T19:37:02.423Z,71.80
2019-03-23T19:39:29.461Z,72.10
2019-03-23T19:41:56.510Z,74.30
2019-03-23T19:44:24.605Z,73.50
2019-03-23T19:46:52.488Z,73.30
2019-03-23T19:49:19.502Z,74.30
2019-03-23T19:51:46.834Z,74.20
2019-03-23T19:54:13.849Z,74.30
2019-03-23T19:56:40.990Z,74.60
2019-03-23T19:59:08.031Z,74.60
2019-03-23T20:01:35.094Z,75.20
2019-03-23T20:04:02.191Z,75.40
2019-03-23T20:06:29.438Z,77.00
2019-03-23T20:08:56.565Z,78.10
2019-03-23T20:11:24.622Z,78.20
2019-03-23T20:13:58.779Z,79.30
2019-03-23T20:16:20.559Z,80.40
2019-03-23T20:18:48.650Z,80.50
2019-03-23T20:21:16.723Z,80.50
2019-03-23T20:23:43.997Z,80.80
2019-03-23T20:26:12.030Z,81.10
2019-03-23T20:28:39.232Z,80.50
2019-03-23T20:31:06.430Z,80.80
2019-03-23T20:33:33.515Z,80.60
2019-03-23T20:36:00.628Z,80.60
2019-03-23T20:38:27.782Z,81.30
2019-03-23T20:40:55.097Z,81.90
2019-03-23T20:43:22.226Z,82.30
2019-03-23T20:45:49.277Z,82.40
2019-03-23T20:48:16.705Z,82.50
2019-03-23T20:50:44.089Z,82.80
2019-03-23T20:53:14.601Z,83.30
2019-03-23T20:55:41.675Z,83.40
2019-03-23T20:58:08.747Z,83.30
2019-03-23T21:00:35.771Z,83.10
2019-03-23T21:03:02.820Z,82.80
2019-03-23T21:05:34.275Z,83.00
2019-03-23T21:07:58.725Z,83.00
2019-03-23T21:10:25.902Z,83.50
2019-03-23T21:12:52.882Z,83.90
2019-03-23T21:15:19.998Z,84.60
2019-03-23T21:17:51.361Z,84.80
2019-03-23T21:20:16.160Z,85.20
2019-03-23T21:22:43.332Z,85.20
2019-03-23T21:25:10.417Z,85.90
2019-03-23T21:27:37.489Z,85.90
2019-03-23T21:30:08.094Z,86.50
2019-03-23T21:32:35.208Z,86.90
2019-03-23T21:35:02.225Z,87.10
2019-03-23T21:37:29.273Z,87.50
2019-03-23T21:39:56.349Z,87.80
2019-03-23T21:42:23.444Z,87.70
2019-03-23T21:44:50.597Z,88.30
2019-03-23T21:47:17.593Z,88.30
2019-03-23T21:49:44.848Z,88.50
2019-03-23T21:52:11.818Z,88.70
2019-03-23T21:54:38.797Z,89.10
2019-03-23T21:57:08.086Z,88.80
2019-03-23T21:59:35.101Z,88.60
2019-03-23T22:02:04.473Z,89.10
2019-03-23T22:04:31.585Z,89.00
2019-03-23T22:06:58.625Z,88.70
2019-03-23T22:09:27.446Z,89.60
2019-03-23T22:11:54.594Z,90.20
2019-03-23T22:14:21.718Z,91.00
2019-03-23T22:16:50.615Z,91.00
2019-03-23T22:19:17.663Z,91.10
2019-03-23T22:21:44.674Z,90.40
2019-03-23T22:24:11.717Z,91.40
2019-03-23T22:26:38.735Z,91.40
2019-03-23T22:29:05.743Z,91.50
2019-03-23T22:31:32.738Z,91.60
2019-03-23T22:33:59.776Z,91.70
2019-03-23T22:36:27.074Z,91.80
2019-03-23T22:38:55.375Z,91.80
2019-03-23T22:41:23.417Z,91.90
2019-03-23T22:43:50.441Z,91.80
2019-03-23T22:46:17.403Z,92.00
2019-03-23T22:48:44.453Z,91.30
2019-03-23T22:51:11.487Z,92.00
2019-03-23T22:53:38.451Z,91.90
2019-03-23T22:56:05.575Z,92.00
2019-03-23T22:58:32.544Z,92.00
2019-03-23T23:00:59.896Z,91.30
2019-03-23T23:03:26.965Z,91.80
2019-03-23T23:05:53.978Z,91.70
2019-03-23T23:08:20.984Z,91.60
2019-03-23T23:10:48.123Z,92.00
2019-03-23T23:13:15.121Z,91.80
2019-03-23T23:15:42.181Z,92.10
2019-03-23T23:18:09.571Z,92.20
2019-03-23T23:20:36.587Z,92.20
2019-03-23T23:23:03.660Z,92.00
2019-03-23T23:25:31.443Z,91.70
2019-03-23T23:27:58.514Z,91.70
2019-03-23T23:30:25.533Z,91.40
2019-03-23T23:32:53.599Z,91.50
2019-03-23T23:35:20.681Z,91.40
2019-03-23T23:37:47.785Z,91.30
2019-03-23T23:40:14.781Z,91.30
2019-03-23T23:42:41.845Z,91.20
2019-03-23T23:45:15.475Z,91.30
2019-03-23T23:47:38.126Z,91.50
2019-03-23T23:50:05.810Z,91.50
2019-03-23T23:52:33.024Z,91.70
2019-03-23T23:55:01.098Z,91.70
2019-03-23T23:57:28.242Z,91.80
2019-03-23T23:59:55.209Z,92.20
